Time;durP1;ratioP1;P1;durP2;ratioP2;P2;SDS_P1;SDS_P2;PMS_P1;PMS_P2;Temp;Humidity;BMP_temperature;BMP_pressure;BME280_temperature;BME280_humidity;BME280_pressure;Samples;Min_cycle;Max_cycle;Signal;HPM_P1;HPM_P2
2020/12/24 00:01:56;;;;;;;;;;;;;;;19.97;39.34;101128.88;5099394;28;855;-46
2020/12/24 00:04:21;;;;;;;;;;;;;;;19.41;40.36;101120.97;5099209;28;1910;-44
2020/12/24 00:06:47;;;;;;;;;;;;;;;19.87;39.53;101122.63;5098693;28;1004;-43
2020/12/24 00:09:12;;;;;;;;;;;;;;;20.89;37.20;101122.78;5099287;28;787;-44
2020/12/24 00:11:38;;;;;;;;;;;;;;;20.31;38.57;101116.16;5099456;28;802;-43
2020/12/24 00:14:03;;;;;;;;;;;;;;;20.16;38.70;101126.25;5098996;28;807;-45
2020/12/24 00:16:29;;;;;;;;;;;;;;;19.67;39.57;101127.16;5099164;28;847;-44
2020/12/24 00:18:54;;;;;;;;;;;;;;;19.39;40.52;101139.72;5098841;28;1019;-44
2020/12/24 00:21:19;;;;;;;;;;;;;;;20.32;38.61;101145.44;5098575;28;1069;-48
2020/12/24 00:23:45;;;;;;;;;;;;;;;21.06;36.82;101145.25;5099089;28;1980;-45
2020/12/24 00:26:10;;;;;;;;;;;;;;;21.40;36.25;101141.47;5098695;28;800;-46
2020/12/24 00:28:36;;;;;;;;;;;;;;;20.87;37.44;101144.38;5098804;28;775;-45
2020/12/24 00:31:01;;;;;;;;;;;;;;;20.54;37.96;101135.84;5098965;28;874;-45
2020/12/24 00:33:27;;;;;;;;;;;;;;;19.86;39.33;101137.53;5098869;28;822;-46
2020/12/24 00:35:52;;;;;;;;;;;;;;;19.52;40.02;101133.59;5098271;28;973;-48
2020/12/24 00:38:18;;;;;;;;;;;;;;;19.71;40.21;101130.16;5097823;28;771;-43
2020/12/24 00:40:43;;;;;;;;;;;;;;;20.78;37.82;101122.91;5098415;28;794;-45
2020/12/24 00:43:08;;;;;;;;;;;;;;;20.47;38.36;101116.88;5098909;28;818;-44
2020/12/24 00:45:34;;;;;;;;;;;;;;;20.17;38.76;101121.53;5117234;28;1901;-43
2020/12/24 00:47:59;;;;;;;;;;;;;;;19.58;40.19;101126.09;5118599;28;826;-43
2020/12/24 00:50:25;;;;;;;;;;;;;;;19.38;40.79;101127.88;5108582;28;929;-45
2020/12/24 00:52:50;;;;;;;;;;;;;;;19.62;40.09;101124.41;5077253;28;816;-44
2020/12/24 00:55:16;;;;;;;;;;;;;;;20.73;37.93;101133.19;5076888;28;1133;-43
2020/12/24 00:57:41;;;;;;;;;;;;;;;20.60;37.89;101112.56;5077072;28;1354;-44
2020/12/24 01:00:07;;;;;;;;;;;;;;;20.38;38.48;101113.06;5077452;28;1271;-43
2020/12/24 01:02:33;;;;;;;;;;;;;;;19.87;39.38;101112.41;5077688;28;787;-44
2020/12/24 01:04:58;;;;;;;;;;;;;;;19.49;40.18;101112.91;5079050;28;1914;-43
2020/12/24 01:07:24;;;;;;;;;;;;;;;19.24;40.92;101110.31;5098127;28;831;-44
2020/12/24 01:09:49;;;;;;;;;;;;;;;20.10;39.21;101099.78;5097818;28;810;-44
2020/12/24 01:12:15;;;;;;;;;;;;;;;20.94;37.17;101100.59;5098348;28;779;-45
2020/12/24 01:14:40;;;;;;;;;;;;;;;20.43;38.10;101102.78;5097949;28;552;-45
2020/12/24 01:17:05;;;;;;;;;;;;;;;20.26;38.61;101096.88;5097768;28;819;-44
2020/12/24 01:19:31;;;;;;;;;;;;;;;19.76;39.50;101099.78;5097776;28;1090;-43
2020/12/24 01:21:56;;;;;;;;;;;;;;;19.29;40.62;101096.47;5097359;28;1004;-43
2020/12/24 01:24:22;;;;;;;;;;;;;;;20.14;38.79;101095.34;5097817;28;1977;-44
2020/12/24 01:26:47;;;;;;;;;;;;;;;20.76;37.76;101080.94;5097785;28;807;-44
2020/12/24 01:29:13;;;;;;;;;;;;;;;20.36;38.42;101085.75;5097591;28;755;-44
2020/12/24 01:31:48;;;;;;;;;;;;;;;20.15;38.65;101083.19;5097670;28;660;-44
2020/12/24 01:34:13;;;;;;;;;;;;;;;19.48;40.24;101085.63;5097708;28;831;-43
2020/12/24 01:36:39;;;;;;;;;;;;;;;20.09;39.22;101070.56;5097167;28;1008;-44
2020/12/24 01:39:04;;;;;;;;;;;;;;;20.77;37.52;101074.25;5097515;28;867;-44
2020/12/24 01:41:30;;;;;;;;;;;;;;;20.33;38.65;101075.28;5097463;28;792;-43
2020/12/24 01:43:55;;;;;;;;;;;;;;;20.07;38.84;101072.75;5101921;28;1918;-43
2020/12/24 01:46:21;;;;;;;;;;;;;;;19.41;40.35;101060.28;5118034;28;775;-43
2020/12/24 01:48:46;;;;;;;;;;;;;;;19.81;39.61;101064.72;5117897;28;725;-43
2020/12/24 01:51:12;;;;;;;;;;;;;;;20.69;37.78;101066.63;5105227;28;937;-43
2020/12/24 01:53:38;;;;;;;;;;;;;;;20.36;38.21;101071.94;5097557;28;849;-42
2020/12/24 01:56:03;;;;;;;;;;;;;;;20.06;39.16;101064.78;5097095;28;760;-43
2020/12/24 01:58:28;;;;;;;;;;;;;;;19.92;39.28;101070.97;5095737;28;763;-46
2020/12/24 02:00:54;;;;;;;;;;;;;;;19.25;40.89;101076.94;5097196;28;940;-44
2020/12/24 02:03:19;;;;;;;;;;;;;;;20.09;39.16;101064.19;5096760;28;1988;-44
2020/12/24 02:05:45;;;;;;;;;;;;;;;20.68;37.99;101056.72;5096683;28;957;-44
2020/12/24 02:08:10;;;;;;;;;;;;;;;20.34;38.48;101063.09;5096957;28;767;-43
2020/12/24 02:10:36;;;;;;;;;;;;;;;20.09;38.86;101054.00;5095646;28;763;-43
2020/12/24 02:13:01;;;;;;;;;;;;;;;19.65;39.87;101055.69;5097205;28;791;-43
2020/12/24 02:15:26;;;;;;;;;;;;;;;19.71;40.24;101059.22;5097453;28;816;-44
2020/12/24 02:17:52;;;;;;;;;;;;;;;20.77;37.57;101059.63;5096727;28;759;-44
2020/12/24 02:20:17;;;;;;;;;;;;;;;20.13;38.78;101055.06;5096259;28;1050;-44
2020/12/24 02:22:43;;;;;;;;;;;;;;;20.07;39.31;101042.41;5096811;28;783;-43
2020/12/24 02:25:08;;;;;;;;;;;;;;;19.64;40.01;101037.50;5096369;28;1914;-44
2020/12/24 02:27:34;;;;;;;;;;;;;;;19.13;41.12;101044.19;5097047;28;827;-43
2020/12/24 02:30:01;;;;;;;;;;;;;;;20.38;38.65;101036.56;5096972;28;831;-44
2020/12/24 02:32:28;;;;;;;;;;;;;;;20.61;38.11;101037.69;5096347;28;775;-45
2020/12/24 02:34:55;;;;;;;;;;;;;;;20.30;38.32;101046.31;5096512;28;961;-45
2020/12/24 02:37:21;;;;;;;;;;;;;;;19.94;39.35;101034.81;5096999;28;771;-44
2020/12/24 02:39:48;;;;;;;;;;;;;;;19.54;40.23;101042.28;5096296;28;799;-44
2020/12/24 02:42:13;;;;;;;;;;;;;;;20.00;39.36;101028.13;5097106;28;704;-43
2020/12/24 02:44:38;;;;;;;;;;;;;;;20.84;37.77;101026.94;5107312;28;1918;-44
2020/12/24 02:47:04;;;;;;;;;;;;;;;20.21;38.64;101020.44;5116576;28;807;-43
2020/12/24 02:49:29;;;;;;;;;;;;;;;20.16;38.80;101035.13;5116855;28;759;-44
2020/12/24 02:51:55;;;;;;;;;;;;;;;19.67;39.79;101041.63;5098744;28;1020;-43
2020/12/24 02:54:20;;;;;;;;;;;;;;;19.36;40.67;101036.31;5096123;28;743;-43
2020/12/24 02:56:46;;;;;;;;;;;;;;;20.57;38.21;101031.09;5096344;28;739;-46
2020/12/24 02:59:11;;;;;;;;;;;;;;;20.82;37.57;101031.94;5096456;28;731;-44
2020/12/24 03:01:36;;;;;;;;;;;;;;;20.28;38.59;101039.44;5097462;28;747;-44
2020/12/24 03:04:02;;;;;;;;;;;;;;;20.06;39.01;101035.22;5100505;28;1914;-43
2020/12/24 03:06:27;;;;;;;;;;;;;;;19.45;40.44;101033.78;5099981;28;1011;-43
2020/12/24 03:08:53;;;;;;;;;;;;;;;19.43;40.60;101028.56;5100471;28;767;-44
2020/12/24 03:11:18;;;;;;;;;;;;;;;20.43;38.37;101028.22;5100486;28;833;-44
2020/12/24 03:13:43;;;;;;;;;;;;;;;20.37;38.36;101029.41;5100507;28;852;-44
2020/12/24 03:16:09;;;;;;;;;;;;;;;20.08;39.06;101030.25;5100450;28;744;-43
2020/12/24 03:18:34;;;;;;;;;;;;;;;19.85;39.53;101031.00;5100202;28;1055;-43
2020/12/24 03:21:00;;;;;;;;;;;;;;;19.41;40.66;101041.81;5099874;28;934;-47
2020/12/24 03:23:25;;;;;;;;;;;;;;;20.18;39.18;101045.88;5099954;28;1902;-43
2020/12/24 03:25:51;;;;;;;;;;;;;;;20.69;37.80;101044.50;5100118;28;780;-44
2020/12/24 03:28:16;;;;;;;;;;;;;;;20.25;38.62;101037.25;5100055;28;768;-44
2020/12/24 03:30:41;;;;;;;;;;;;;;;20.20;38.75;101045.59;5099839;28;1115;-48
2020/12/24 03:33:07;;;;;;;;;;;;;;;19.62;40.03;101044.41;5099833;28;1474;-47
2020/12/24 03:35:32;;;;;;;;;;;;;;;19.22;41.32;101041.63;5100173;28;978;-49
2020/12/24 03:37:58;;;;;;;;;;;;;;;20.39;38.59;101038.22;5100081;28;817;-47
2020/12/24 03:40:23;;;;;;;;;;;;;;;20.43;38.29;101046.75;5100158;28;807;-45
2020/12/24 03:42:48;;;;;;;;;;;;;;;20.12;39.09;101049.81;5099696;28;779;-48
2020/12/24 03:45:14;;;;;;;;;;;;;;;19.96;39.25;101038.94;5115593;28;1906;-45
2020/12/24 03:47:39;;;;;;;;;;;;;;;19.58;40.41;101043.34;5120245;28;830;-47
2020/12/24 03:50:05;;;;;;;;;;;;;;;19.66;40.20;101051.00;5117138;28;952;-45
2020/12/24 03:52:31;;;;;;;;;;;;;;;20.71;37.80;101047.00;5099813;28;814;-46
2020/12/24 03:54:56;;;;;;;;;;;;;;;20.62;37.91;101044.03;5099639;28;801;-45
2020/12/24 03:57:21;;;;;;;;;;;;;;;20.38;38.49;101044.03;5099421;28;843;-45
2020/12/24 03:59:47;;;;;;;;;;;;;;;19.86;39.41;101040.94;5099451;28;835;-44
2020/12/24 04:02:12;;;;;;;;;;;;;;;19.60;40.12;101047.47;5099187;28;779;-45
2020/12/24 04:04:38;;;;;;;;;;;;;;;19.31;40.86;101055.66;5099597;28;1976;-44
2020/12/24 04:07:04;;;;;;;;;;;;;;;20.40;38.53;101053.66;5098772;28;953;-44
2020/12/24 04:09:29;;;;;;;;;;;;;;;20.51;38.12;101055.19;5099648;28;843;-44
2020/12/24 04:11:55;;;;;;;;;;;;;;;20.34;38.35;101050.13;5099290;28;775;-46
2020/12/24 04:14:20;;;;;;;;;;;;;;;19.99;39.25;101054.91;5097696;28;803;-54
2020/12/24 04:16:46;;;;;;;;;;;;;;;19.41;40.51;101044.56;5098968;28;838;-46
2020/12/24 04:19:11;;;;;;;;;;;;;;;19.26;41.32;101042.72;5099370;28;1442;-49
2020/12/24 04:21:36;;;;;;;;;;;;;;;20.41;38.54;101041.50;5098493;28;949;-51
2020/12/24 04:24:02;;;;;;;;;;;;;;;20.77;37.77;101037.53;5098920;28;1989;-48
2020/12/24 04:26:27;;;;;;;;;;;;;;;20.15;38.95;101036.25;5098989;28;759;-48
2020/12/24 04:28:53;;;;;;;;;;;;;;;20.27;38.73;101035.03;5098746;28;823;-48
2020/12/24 04:31:18;;;;;;;;;;;;;;;19.65;40.11;101041.91;5099074;28;767;-48
2020/12/24 04:33:44;;;;;;;;;;;;;;;19.77;39.83;101054.53;5098959;28;795;-48
2020/12/24 04:36:11;;;;;;;;;;;;;;;20.71;38.11;101058.06;5098354;28;1005;-46
2020/12/24 04:38:37;;;;;;;;;;;;;;;20.56;38.12;101057.06;5098816;28;779;-47
2020/12/24 04:41:02;;;;;;;;;;;;;;;20.21;38.62;101048.06;5098963;28;813;-47
2020/12/24 04:43:28;;;;;;;;;;;;;;;19.90;39.56;101045.59;5099240;28;1984;-47
2020/12/24 04:45:53;;;;;;;;;;;;;;;19.39;40.83;101049.56;5117649;28;798;-48
2020/12/24 04:48:19;;;;;;;;;;;;;;;20.34;38.62;101060.34;5119261;28;742;-49
2020/12/24 04:50:46;;;;;;;;;;;;;;;20.83;37.49;101058.44;5110435;28;940;-49
2020/12/24 04:53:11;;;;;;;;;;;;;;;20.21;38.85;101058.28;5097196;28;803;-46
2020/12/24 04:55:37;;;;;;;;;;;;;;;20.09;39.19;101056.75;5098746;28;794;-48
2020/12/24 04:58:02;;;;;;;;;;;;;;;19.71;40.07;101059.22;5097867;28;751;-46
2020/12/24 05:00:28;;;;;;;;;;;;;;;19.34;41.01;101055.09;5098191;28;763;-46
2020/12/24 05:03:09;;;;;;;;;;;;;;;20.49;38.33;101051.09;5098287;28;791;-45
2020/12/24 05:05:35;;;;;;;;;;;;;;;20.38;38.56;101057.84;5096642;28;1988;-47
2020/12/24 05:08:06;;;;;;;;;;;;;;;20.08;39.21;101054.28;5097918;28;890;-46
2020/12/24 05:10:32;;;;;;;;;;;;;;;19.81;39.65;101061.97;5098058;28;819;-48
2020/12/24 05:12:58;;;;;;;;;;;;;;;19.45;40.59;101066.88;5098363;28;775;-46
2020/12/24 05:15:27;;;;;;;;;;;;;;;20.50;38.48;101070.13;5098191;28;744;-47
2020/12/24 05:17:53;;;;;;;;;;;;;;;20.35;38.61;101067.53;5097637;28;859;-45
2020/12/24 05:20:18;;;;;;;;;;;;;;;20.14;39.04;101064.97;5097353;28;1097;-45
2020/12/24 05:22:44;;;;;;;;;;;;;;;19.96;39.21;101060.16;5096580;28;834;-45
2020/12/24 05:25:19;;;;;;;;;;;;;;;19.37;40.44;101065.53;5097204;28;1962;-46
2020/12/24 05:27:57;;;;;;;;;;;;;;;20.35;38.77;101067.53;5097703;28;534;-49
2020/12/24 05:30:26;;;;;;;;;;;;;;;20.66;37.83;101065.25;5097677;28;747;-45
2020/12/24 05:32:52;;;;;;;;;;;;;;;20.11;38.93;101057.25;5097506;28;776;-45
2020/12/24 05:35:18;;;;;;;;;;;;;;;19.95;39.22;101064.03;5096064;28;907;-45
2020/12/24 05:37:43;;;;;;;;;;;;;;;19.60;40.04;101068.69;5096226;28;1362;-46
2020/12/24 05:40:16;;;;;;;;;;;;;;;19.63;40.25;101062.63;5097413;28;890;-46
2020/12/24 05:42:48;;;;;;;;;;;;;;;20.54;38.18;101070.38;5097739;28;804;-49
2020/12/24 05:45:17;;;;;;;;;;;;;;;20.21;38.96;101067.38;5112788;28;1913;-46
2020/12/24 05:47:43;;;;;;;;;;;;;;;20.17;39.14;101067.16;5116312;28;878;-46
2020/12/24 05:50:28;;;;;;;;;;;;;;;19.89;39.42;101070.72;5113191;28;1011;-45
2020/12/24 05:53:03;;;;;;;;;;;;;;;19.24;40.96;101061.50;5096426;28;1110;-46
2020/12/24 05:55:29;;;;;;;;;;;;;;;20.39;38.58;101062.25;5095973;28;991;-47
2020/12/24 05:57:54;;;;;;;;;;;;;;;20.49;38.01;101057.41;5097291;28;751;-46
2020/12/24 06:00:19;;;;;;;;;;;;;;;20.28;38.53;101064.28;5095822;28;760;-45
2020/12/24 06:02:45;;;;;;;;;;;;;;;19.96;39.32;101055.50;5095938;28;791;-48
2020/12/24 06:05:10;;;;;;;;;;;;;;;19.49;40.30;101060.50;5095457;28;1973;-48
2020/12/24 06:07:36;;;;;;;;;;;;;;;19.87;39.85;101061.94;5095725;28;822;-45
2020/12/24 06:10:05;;;;;;;;;;;;;;;20.70;37.81;101056.41;5095933;28;829;-50
2020/12/24 06:12:31;;;;;;;;;;;;;;;20.39;38.36;101054.78;5097259;28;755;-45
2020/12/24 06:14:57;;;;;;;;;;;;;;;20.15;39.10;101058.34;5097055;28;810;-45
2020/12/24 06:17:23;;;;;;;;;;;;;;;19.86;39.72;101054.75;5097210;28;994;-47
2020/12/24 06:19:48;;;;;;;;;;;;;;;19.40;40.31;101031.88;5094996;28;1198;-47
2020/12/24 06:22:14;;;;;;;;;;;;;;;20.46;38.39;101052.50;5096552;28;1040;-44
2020/12/24 06:25:00;;;;;;;;;;;;;;;20.67;37.72;101052.25;5096742;28;1984;-48
2020/12/24 06:27:31;;;;;;;;;;;;;;;20.18;38.91;101054.97;5096012;28;1079;-46
2020/12/24 06:30:15;;;;;;;;;;;;;;;19.95;39.39;101053.84;5096448;28;807;-45
2020/12/24 06:32:46;;;;;;;;;;;;;;;19.43;40.59;101053.38;5096824;28;775;-45
2020/12/24 06:35:11;;;;;;;;;;;;;;;19.93;39.46;101045.00;5095884;28;1008;-47
2020/12/24 06:37:40;;;;;;;;;;;;;;;20.88;37.53;101046.53;5095937;28;735;-47
2020/12/24 06:40:06;;;;;;;;;;;;;;;20.32;38.65;101051.53;5096866;28;810;-50
2020/12/24 06:42:41;;;;;;;;;;;;;;;20.24;38.89;101050.22;5095977;28;803;-48
2020/12/24 06:45:10;;;;;;;;;;;;;;;19.60;40.24;101047.47;5110926;28;1963;-48
2020/12/24 06:47:36;;;;;;;;;;;;;;;19.25;41.12;101045.75;5116845;28;992;-48
2020/12/24 06:50:22;;;;;;;;;;;;;;;20.49;38.59;101040.84;5112226;28;941;-53
2020/12/24 06:52:47;;;;;;;;;;;;;;;20.32;38.45;101057.06;5096374;28;1142;-49
2020/12/24 06:55:16;;;;;;;;;;;;;;;20.10;39.02;101054.78;5095995;28;925;-49
2020/12/24 06:57:42;;;;;;;;;;;;;;;19.79;39.58;101049.53;5099173;28;816;-47
2020/12/24 07:00:13;;;;;;;;;;;;;;;19.10;41.16;101041.19;5097109;28;822;-46
2020/12/24 07:02:38;;;;;;;;;;;;;;;20.32;38.88;101038.56;5096424;28;775;-46
2020/12/24 07:05:04;;;;;;;;;;;;;;;21.13;36.92;101042.59;5095732;28;1910;-49
2020/12/24 07:07:43;;;;;;;;;;;;;;;21.51;36.17;101037.03;5096224;28;784;-46
2020/12/24 07:10:08;;;;;;;;;;;;;;;20.56;38.07;101040.50;5095946;28;862;-46
2020/12/24 07:12:34;;;;;;;;;;;;;;;20.53;38.08;101030.03;5096057;28;760;-45
2020/12/24 07:15:18;;;;;;;;;;;;;;;19.65;39.96;101035.56;5096013;28;755;-48
2020/12/24 07:17:43;;;;;;;;;;;;;;;19.20;40.96;101032.03;5095832;28;838;-46
2020/12/24 07:20:09;;;;;;;;;;;;;;;20.08;39.30;101037.72;5095238;28;1052;-46
2020/12/24 07:22:34;;;;;;;;;;;;;;;20.80;37.74;101034.16;5095341;28;789;-46
2020/12/24 07:25:00;;;;;;;;;;;;;;;20.31;38.72;101034.16;5077648;28;1973;-46
2020/12/24 07:27:26;;;;;;;;;;;;;;;20.10;39.15;101027.19;5095961;28;830;-51
2020/12/24 07:29:51;;;;;;;;;;;;;;;19.68;40.27;101026.72;5095725;28;830;-48
2020/12/24 07:32:16;;;;;;;;;;;;;;;19.40;40.96;101017.28;5095536;28;831;-46
2020/12/24 07:34:42;;;;;;;;;;;;;;;20.52;38.32;101018.19;5095747;28;824;-50
2020/12/24 07:37:08;;;;;;;;;;;;;;;20.57;38.17;101013.72;5095202;28;978;-52
2020/12/24 07:39:33;;;;;;;;;;;;;;;20.31;38.74;101023.13;5095801;28;819;-47
2020/12/24 07:41:58;;;;;;;;;;;;;;;19.94;39.34;101019.06;5095520;28;808;-47
2020/12/24 07:44:24;;;;;;;;;;;;;;;19.32;40.86;101029.72;5104312;28;1909;-45
2020/12/24 07:46:51;;;;;;;;;;;;;;;19.60;40.43;101025.41;5115960;28;751;-47
2020/12/24 07:49:16;;;;;;;;;;;;;;;20.68;38.26;101021.59;5119777;28;808;-45
2020/12/24 07:51:42;;;;;;;;;;;;;;;20.33;38.51;101029.16;5103252;28;972;-50
2020/12/24 07:54:07;;;;;;;;;;;;;;;20.21;38.91;101020.44;5099493;28;762;-46
2020/12/24 07:56:33;;;;;;;;;;;;;;;19.74;39.80;101022.81;5099273;28;752;-48
2020/12/24 07:58:59;;;;;;;;;;;;;;;19.38;40.61;101025.84;5099509;28;779;-47
2020/12/24 08:01:25;;;;;;;;;;;;;;;20.17;39.28;101024.91;5099037;28;819;-48
2020/12/24 08:04:00;;;;;;;;;;;;;;;20.73;38.02;101017.94;5099349;28;1976;-46
2020/12/24 08:06:26;;;;;;;;;;;;;;;20.29;38.72;101030.03;5098808;28;949;-45
2020/12/24 08:08:52;;;;;;;;;;;;;;;20.02;39.49;101023.16;5099473;28;743;-47
2020/12/24 08:11:17;;;;;;;;;;;;;;;19.47;40.44;101028.81;5099269;28;816;-46
2020/12/24 08:13:43;;;;;;;;;;;;;;;19.13;41.44;101024.88;5099348;28;792;-46
2020/12/24 08:16:08;;;;;;;;;;;;;;;19.87;39.76;101017.78;5099020;28;771;-47
2020/12/24 08:18:34;;;;;;;;;;;;;;;20.52;38.26;101029.22;5098908;28;1185;-48
2020/12/24 08:21:07;;;;;;;;;;;;;;;20.17;39.00;101024.91;5097665;28;933;-46
2020/12/24 08:23:45;;;;;;;;;;;;;;;20.17;38.98;101039.56;5097230;28;832;-45
2020/12/24 08:26:11;;;;;;;;;;;;;;;19.43;40.47;101028.56;5098625;28;807;-47
2020/12/24 08:28:37;;;;;;;;;;;;;;;19.39;40.98;101032.16;5098797;28;739;-46
2020/12/24 08:31:06;;;;;;;;;;;;;;;20.54;38.32;101030.84;5097211;28;911;-48
2020/12/24 08:33:31;;;;;;;;;;;;;;;20.45;38.33;101031.50;5098317;28;735;-47
2020/12/24 08:36:10;;;;;;;;;;;;;;;20.12;39.06;101030.50;5097097;28;1009;-45
2020/12/24 08:38:36;;;;;;;;;;;;;;;19.85;39.79;101031.84;5097526;28;827;-45
2020/12/24 08:41:01;;;;;;;;;;;;;;;19.20;41.04;101029.28;5098306;28;851;-47
2020/12/24 08:43:27;;;;;;;;;;;;;;;19.97;39.73;101031.47;5099592;28;1196;-45
2020/12/24 08:45:52;;;;;;;;;;;;;;;20.64;38.11;101030.75;5117679;28;1898;-46
2020/12/24 08:48:30;;;;;;;;;;;;;;;20.21;38.80;101027.91;5118715;28;755;-49
2020/12/24 08:50:56;;;;;;;;;;;;;;;20.02;39.22;101025.91;5109269;28;949;-47
2020/12/24 08:53:22;;;;;;;;;;;;;;;19.28;41.14;101025.91;5098487;28;795;-46
2020/12/24 08:55:47;;;;;;;;;;;;;;;19.86;39.85;101025.22;5098163;28;795;-50
2020/12/24 08:58:13;;;;;;;;;;;;;;;20.78;37.70;101017.88;5098380;28;921;-49
2020/12/24 09:00:38;;;;;;;;;;;;;;;20.40;38.40;101017.75;5097441;28;811;-44
2020/12/24 09:03:19;;;;;;;;;;;;;;;20.14;39.01;101006.97;5097709;28;831;-48
2020/12/24 09:05:45;;;;;;;;;;;;;;;19.34;40.69;101016.50;5098198;28;1910;-45
2020/12/24 09:08:10;;;;;;;;;;;;;;;19.70;40.18;100998.81;5097655;28;823;-51
2020/12/24 09:10:36;;;;;;;;;;;;;;;20.59;38.36;100994.88;5098005;28;831;-50
2020/12/24 09:13:01;;;;;;;;;;;;;;;20.45;38.44;100984.53;5097957;28;831;-48
2020/12/24 09:15:28;;;;;;;;;;;;;;;20.15;39.11;100981.03;5097743;28;763;-48
2020/12/24 09:17:57;;;;;;;;;;;;;;;19.81;39.69;100978.34;5098014;28;854;-51
2020/12/24 09:20:26;;;;;;;;;;;;;;;19.43;41.05;100973.41;5096356;28;1182;-49
2020/12/24 09:22:54;;;;;;;;;;;;;;;20.63;38.20;100969.13;5097644;28;763;-53
2020/12/24 09:25:36;;;;;;;;;;;;;;;20.71;37.70;100972.41;5097606;28;1953;-51
2020/12/24 09:28:02;;;;;;;;;;;;;;;20.13;39.13;100963.94;5097692;28;828;-47
2020/12/24 09:30:27;;;;;;;;;;;;;;;19.83;39.66;100963.13;5097392;28;751;-47
2020/12/24 09:32:57;;;;;;;;;;;;;;;19.41;40.93;100967.34;5097604;28;747;-46
2020/12/24 09:35:23;;;;;;;;;;;;;;;20.46;38.70;100963.28;5097199;28;996;-49
2020/12/24 09:37:48;;;;;;;;;;;;;;;20.77;37.88;100949.91;5098022;28;760;-45
2020/12/24 09:40:14;;;;;;;;;;;;;;;20.21;39.15;100945.09;5097343;28;847;-56
2020/12/24 09:42:39;;;;;;;;;;;;;;;20.03;39.21;100939.19;5097266;28;787;-49
2020/12/24 09:45:05;;;;;;;;;;;;;;;19.19;41.29;100931.94;5112017;28;1902;-47
2020/12/24 09:47:30;;;;;;;;;;;;;;;20.36;38.89;100931.09;5117799;28;751;-51
2020/12/24 09:49:55;;;;;;;;;;;;;;;21.10;37.35;100927.88;5116626;28;956;-47
2020/12/24 09:52:21;;;;;;;;;;;;;;;20.33;38.58;100920.66;5097271;28;887;-53
2020/12/24 09:54:46;;;;;;;;;;;;;;;20.03;39.22;100917.13;5097262;28;874;-48
2020/12/24 09:57:12;;;;;;;;;;;;;;;19.18;41.16;100907.44;5096845;28;835;-48
2020/12/24 09:59:37;;;;;;;;;;;;;;;19.91;39.77;100909.25;5097209;28;747;-45
2020/12/24 10:02:02;;;;;;;;;;;;;;;20.90;37.71;100895.00;5097343;28;798;-46
2020/12/24 10:04:28;;;;;;;;;;;;;;;20.29;38.93;100903.03;5096807;28;1963;-48
2020/12/24 10:06:53;;;;;;;;;;;;;;;20.13;39.29;100897.69;5096880;28;989;-47
2020/12/24 10:09:19;;;;;;;;;;;;;;;19.53;40.63;100903.56;5096892;28;763;-51
2020/12/24 10:11:45;;;;;;;;;;;;;;;19.88;39.82;100903.50;5096335;28;755;-48
2020/12/24 10:14:11;;;;;;;;;;;;;;;20.91;37.65;100904.94;5096965;28;810;-49
2020/12/24 10:16:36;;;;;;;;;;;;;;;20.29;38.98;100897.50;5096793;28;803;-47
2020/12/24 10:19:02;;;;;;;;;;;;;;;20.22;39.23;100891.53;5096899;28;1024;-51
2020/12/24 10:21:29;;;;;;;;;;;;;;;19.48;40.58;100901.66;5096384;28;965;-46
2020/12/24 10:23:54;;;;;;;;;;;;;;;19.37;41.11;100899.28;5096849;28;1909;-48
2020/12/24 10:26:20;;;;;;;;;;;;;;;20.52;38.76;100891.09;5096474;28;776;-46
2020/12/24 10:28:46;;;;;;;;;;;;;;;20.38;38.61;100889.38;5096759;28;772;-47
2020/12/24 10:31:11;;;;;;;;;;;;;;;20.03;39.42;100891.47;5096306;28;735;-45
2020/12/24 10:33:37;;;;;;;;;;;;;;;19.65;40.42;100879.13;5096490;28;744;-47
2020/12/24 10:36:02;;;;;;;;;;;;;;;19.51;40.91;100875.44;5096417;28;941;-48
2020/12/24 10:38:28;;;;;;;;;;;;;;;20.54;38.38;100865.09;5096256;28;867;-46
2020/12/24 10:40:53;;;;;;;;;;;;;;;20.93;37.69;100856.53;5096697;28;740;-50
2020/12/24 10:43:19;;;;;;;;;;;;;;;20.34;38.87;100859.59;5096474;28;827;-47
2020/12/24 10:45:45;;;;;;;;;;;;;;;20.00;39.47;100848.72;5116171;28;1977;-46
2020/12/24 10:48:10;;;;;;;;;;;;;;;19.40;40.85;100843.56;5116489;28;858;-46
2020/12/24 10:50:36;;;;;;;;;;;;;;;20.20;39.26;100855.91;5109561;28;948;-46
2020/12/24 10:53:01;;;;;;;;;;;;;;;20.91;37.89;100846.91;5096262;28;783;-47
2020/12/24 10:55:26;;;;;;;;;;;;;;;20.37;38.96;100849.88;5096338;28;736;-50
2020/12/24 10:57:52;;;;;;;;;;;;;;;20.08;39.35;100842.53;5096015;28;755;-58
2020/12/24 11:00:17;;;;;;;;;;;;;;;19.35;41.12;100838.06;5095898;28;882;-58
2020/12/24 11:02:43;;;;;;;;;;;;;;;20.25;39.42;100836.50;5096037;28;803;-56
2020/12/24 11:05:08;;;;;;;;;;;;;;;21.00;37.70;100829.31;5095511;28;1969;-54
2020/12/24 11:07:34;;;;;;;;;;;;;;;20.33;39.04;100826.75;5095923;28;874;-46
2020/12/24 11:09:59;;;;;;;;;;;;;;;20.12;39.37;100821.50;5095839;28;811;-45
2020/12/24 11:12:25;;;;;;;;;;;;;;;19.43;40.89;100827.25;5096072;28;811;-45
2020/12/24 11:14:50;;;;;;;;;;;;;;;19.66;40.56;100822.03;5095845;28;883;-46
2020/12/24 11:17:15;;;;;;;;;;;;;;;20.80;38.27;100830.50;5095656;28;791;-47
2020/12/24 11:19:41;;;;;;;;;;;;;;;20.33;38.90;100815.69;5095791;28;1073;-56
2020/12/24 11:22:06;;;;;;;;;;;;;;;20.03;39.65;100812.22;5096013;28;942;-51
2020/12/24 11:24:32;;;;;;;;;;;;;;;19.42;40.82;100813.75;5099540;28;1985;-47
2020/12/24 11:26:57;;;;;;;;;;;;;;;19.59;40.93;100811.34;5100101;28;828;-59
2020/12/24 11:29:23;;;;;;;;;;;;;;;20.58;38.78;100802.63;5099996;28;874;-49
2020/12/24 11:31:48;;;;;;;;;;;;;;;20.46;38.68;100808.59;5100224;28;792;-53
2020/12/24 11:34:14;;;;;;;;;;;;;;;20.25;39.35;100797.03;5099786;28;775;-57
2020/12/24 11:36:39;;;;;;;;;;;;;;;19.76;40.30;100807.31;5099564;28;977;-47
2020/12/24 11:39:04;;;;;;;;;;;;;;;19.39;41.10;100800.53;5099742;28;832;-55
2020/12/24 11:41:30;;;;;;;;;;;;;;;20.62;38.71;100796.22;5099666;28;843;-45
2020/12/24 11:43:56;;;;;;;;;;;;;;;20.51;38.72;100789.22;5104731;28;1914;-56
2020/12/24 11:46:22;;;;;;;;;;;;;;;20.16;39.50;100791.34;5120100;28;878;-48
2020/12/24 11:48:49;;;;;;;;;;;;;;;19.69;40.22;100793.88;5118781;28;763;-51
2020/12/24 11:51:15;;;;;;;;;;;;;;;19.42;41.33;100784.25;5107458;28;999;-46
2020/12/24 11:53:41;;;;;;;;;;;;;;;20.57;38.70;100784.41;5099777;28;785;-52
2020/12/24 11:56:11;;;;;;;;;;;;;;;20.87;37.89;100785.06;5098133;28;830;-59
2020/12/24 11:58:36;;;;;;;;;;;;;;;20.30;39.11;100777.63;5099785;28;727;-48
2020/12/24 12:01:02;;;;;;;;;;;;;;;19.80;40.24;100772.53;5099569;28;759;-57
2020/12/24 12:03:27;;;;;;;;;;;;;;;19.14;41.85;100772.94;5098976;28;878;-59
2020/12/24 12:05:52;;;;;;;;;;;;;;;20.26;39.48;100765.53;5099069;28;1968;-49
2020/12/24 12:08:18;;;;;;;;;;;;;;;20.98;37.41;100745.06;5099071;28;835;-57
2020/12/24 12:10:43;;;;;;;;;;;;;;;20.44;38.91;100755.59;5099599;28;739;-52
2020/12/24 12:13:09;;;;;;;;;;;;;;;20.34;39.33;100762.09;5099140;28;819;-49
2020/12/24 12:15:34;;;;;;;;;;;;;;;19.63;40.65;100764.72;5099251;28;767;-51
2020/12/24 12:18:00;;;;;;;;;;;;;;;19.68;40.75;100767.38;5099054;28;751;-49
2020/12/24 12:20:25;;;;;;;;;;;;;;;20.74;38.36;100770.88;5098556;28;1292;-47
2020/12/24 12:22:52;;;;;;;;;;;;;;;20.48;38.82;100765.75;5099276;28;787;-51
2020/12/24 12:25:18;;;;;;;;;;;;;;;20.12;39.59;100760.78;5098406;28;1906;-51
2020/12/24 12:27:44;;;;;;;;;;;;;;;19.85;40.15;100750.38;5099523;28;778;-51
2020/12/24 12:30:09;;;;;;;;;;;;;;;19.59;40.83;100742.41;5098600;28;866;-48
2020/12/24 12:32:35;;;;;;;;;;;;;;;20.65;38.76;100747.78;5098611;28;744;-48
2020/12/24 12:35:00;;;;;;;;;;;;;;;20.67;38.32;100743.63;5097285;28;985;-55
2020/12/24 12:37:26;;;;;;;;;;;;;;;20.27;39.49;100745.09;5098865;28;791;-44
2020/12/24 12:39:51;;;;;;;;;;;;;;;19.93;40.26;100744.19;5098643;28;743;-53
2020/12/24 12:42:17;;;;;;;;;;;;;;;19.22;41.77;100748.63;5098717;28;827;-48
2020/12/24 12:44:42;;;;;;;;;;;;;;;20.22;39.81;100740.47;5109633;28;1909;-49
2020/12/24 12:47:08;;;;;;;;;;;;;;;21.05;38.01;100742.72;5118850;28;815;-48
2020/12/24 12:49:33;;;;;;;;;;;;;;;20.37;39.18;100746.88;5119010;28;778;-48
2020/12/24 12:52:02;;;;;;;;;;;;;;;20.22;39.58;100743.22;5100417;28;953;-53